CDT,Max TemperatureF,Mean TemperatureF,Min TemperatureF,Max Dew PointF,MeanDew PointF,Min DewpointF,Max Humidity, Mean Humidity, Min Humidity, Max Sea Level PressureIn, Mean Sea Level PressureIn, Min Sea Level PressureIn, Max VisibilityMiles, Mean VisibilityMiles, Min VisibilityMiles, Max Wind SpeedMPH, Mean Wind SpeedMPH, Max Gust SpeedMPH,PrecipitationIn, CloudCover, Events, WindDirDegrees
2013-6-1,70,59,47,56,49,41,100,81,62,30.00,29.75,29.56,10,10,6,23,8,33,T,5,Rain,352
2013-6-2,66,56,45,44,40,37,80,57,34,30.13,30.07,30.02,10,10,10,14,7,22,0.00,2,,332
2013-6-3,67,54,40,44,41,37,100,69,37,30.09,30.06,29.99,10,10,9,10,4,15,0.00,2,,103
2013-6-4,59,55,51,55,50,40,100,78,55,30.10,30.06,30.01,10,6,1,17,9,25,0.99,7,Rain-Thunderstorm,104
2013-6-5,61,55,49,55,53,48,100,90,80,30.06,30.00,29.97,10,6,0,16,7,21,0.57,8,Fog-Rain,103
2013-6-6,57,53,48,50,48,47,100,89,77,30.09,30.05,30.02,10,9,2,12,5,15,0.00,8,,25
2013-6-7,62,54,46,54,49,45,100,82,64,30.09,30.03,29.96,10,10,8,7,1,9,0.00,8,,72
2013-6-8,70,59,48,53,51,48,100,77,53,29.95,29.93,29.91,10,9,4,15,6,21,0.00,4,,122
2013-6-9,61,58,55,56,54,53,93,86,78,29.91,29.84,29.81,10,6,2,16,8,25,0.34,8,Rain,79
2013-6-10,72,64,56,60,57,55,100,81,61,29.90,29.86,29.82,10,7,1,10,3,13,0.01,6,,285
2013-6-11,76,64,51,64,57,52,100,81,61,29.91,29.87,29.83,10,5,0,10,2,13,0.00,1,Fog,292
2013-6-12,75,66,57,61,54,49,87,71,55,30.00,29.89,29.84,10,10,8,16,6,30,0.14,5,Rain-Thunderstorm,359
2013-6-13,78,66,53,55,52,48,87,64,40,30.14,30.09,30.02,10,10,10,13,6,16,0.00,0,,14
2013-6-14,78,66,53,60,55,49,89,71,53,30.09,30.00,29.87,10,10,10,25,10,30,0.00,4,,131
2013-6-15,82,69,55,64,58,46,93,63,32,29.91,29.89,29.86,10,10,8,14,6,17,0.00,3,,283
2013-6-16,87,69,50,57,49,41,89,55,21,29.93,29.89,29.85,10,10,10,28,8,36,0.00,1,,266
2013-6-17,81,68,55,57,53,46,86,61,36,30.07,29.95,29.89,10,10,10,17,8,22,0.00,3,,350
2013-6-18,75,62,49,54,48,39,80,63,46,30.14,30.10,30.04,10,10,10,10,5,15,0.00,4,,72
2013-6-19,84,69,53,59,56,52,100,72,43,30.07,30.01,29.94,10,10,8,18,7,23,0.00,1,,138
2013-6-20,90,78,65,67,63,59,90,65,40,30.00,29.94,29.85,10,10,8,23,10,29,0.22,3,Rain-Thunderstorm,151
2013-6-21,79,71,63,67,63,57,93,78,62,30.09,29.88,29.70,10,8,1,53,9,66,1.37,4,Rain-Thunderstorm,79
2013-6-22,78,71,64,67,64,63,100,85,69,30.00,29.93,29.84,10,9,4,24,5,30,0.20,5,Rain-Thunderstorm,89
2013-6-23,80,71,62,68,64,59,100,79,58,29.88,29.75,29.65,10,7,0,36,11,46,1.63,6,Fog-Rain-Thunderstorm,176
2013-6-24,82,70,57,70,63,57,97,78,58,29.91,29.87,29.81,10,9,1,15,5,24,0.00,0,,162
2013-6-25,85,74,63,70,66,62,100,76,51,29.83,29.78,29.70,10,10,7,16,7,21,0.00,0,,131
2013-6-26,86,77,67,72,67,62,100,76,51,29.82,29.72,29.66,10,8,1,21,8,25,0.00,1,,278
2013-6-27,85,76,66,64,58,53,93,64,34,29.84,29.82,29.80,10,10,10,22,12,33,0.00,0,,296
2013-6-28,78,72,65,64,59,55,84,69,54,29.84,29.82,29.80,10,10,2,31,14,43,0.08,5,Rain,318
2013-6-29,78,68,57,63,58,52,100,72,43,30.04,29.89,29.79,10,10,2,18,9,25,0.21,5,Rain,5
2013-6-30,83,68,53,59,53,48,93,63,33,30.15,30.12,30.05,10,9,6,14,5,18,0.00,1,,359